createdAt,value
2023-05-25T00:00:26.426Z,86.60
2023-05-25T00:05:28.637Z,85.87
2023-05-25T00:10:30.248Z,86.80
2023-05-25T00:15:31.839Z,88.17
2023-05-25T00:20:33.490Z,87.26
2023-05-25T00:25:35.277Z,88.18
2023-05-25T00:30:36.958Z,87.44
2023-05-25T00:35:38.662Z,88.00
2023-05-25T00:40:41.276Z,87.95
2023-05-25T00:45:43.139Z,88.37
2023-05-25T00:50:45.948Z,87.26
2023-05-25T00:55:57.969Z,87.01
2023-05-25T01:01:01.754Z,87.30
2023-05-25T01:06:07.362Z,87.63
2023-05-25T01:11:11.796Z,87.57
2023-05-25T01:16:14.359Z,87.27
2023-05-25T01:21:22.496Z,87.80
2023-05-25T01:26:27.809Z,87.83
2023-05-25T01:31:30.124Z,88.08
2023-05-25T01:36:33.213Z,87.48
2023-05-25T01:41:34.806Z,88.28
2023-05-25T01:46:41.204Z,87.84
2023-05-25T01:51:58.119Z,88.17
2023-05-25T01:57:01.994Z,87.99
2023-05-25T02:02:05.577Z,88.89
2023-05-25T02:07:07.423Z,87.60
2023-05-25T02:12:09.216Z,87.88
2023-05-25T02:17:12.922Z,87.36
2023-05-25T02:22:15.004Z,87.15
2023-05-25T02:27:16.639Z,86.56
2023-05-25T02:32:18.209Z,86.48
2023-05-25T02:37:19.813Z,86.54
2023-05-25T02:42:21.486Z,87.08
2023-05-25T02:47:23.086Z,87.69
2023-05-25T02:52:25.767Z,86.94
2023-05-25T02:57:27.732Z,86.86
2023-05-25T03:02:30.930Z,85.93
2023-05-25T03:07:32.555Z,86.25
2023-05-25T03:12:34.323Z,86.52
2023-05-25T03:17:35.965Z,84.87
2023-05-25T03:22:37.605Z,86.11
2023-05-25T03:27:39.850Z,86.13
2023-05-25T03:32:41.929Z,86.20
2023-05-25T03:37:43.509Z,86.32
2023-05-25T03:42:45.111Z,86.66
2023-05-25T03:47:48.105Z,86.95
2023-05-25T03:52:49.815Z,86.75
2023-05-25T03:57:51.442Z,86.12
2023-05-25T04:02:53.225Z,86.68
2023-05-25T04:07:55.784Z,86.51
2023-05-25T04:12:57.441Z,86.50
2023-05-25T04:17:59.823Z,86.09
2023-05-25T04:23:01.725Z,86.60
2023-05-25T04:28:03.406Z,86.37
2023-05-25T04:33:05.098Z,87.47
2023-05-25T04:38:07.299Z,88.63
2023-05-25T04:43:10.041Z,89.66
2023-05-25T04:48:13.180Z,88.63
2023-05-25T04:53:16.402Z,90.22
2023-05-25T04:58:18.727Z,89.67
2023-05-25T05:03:20.850Z,89.82
2023-05-25T05:08:22.714Z,90.44
2023-05-25T05:13:24.297Z,91.18
2023-05-25T05:18:26.003Z,90.40
2023-05-25T05:23:27.552Z,90.11
2023-05-25T05:28:29.952Z,91.15
2023-05-25T05:33:31.597Z,91.32
2023-05-25T05:38:33.303Z,91.89
2023-05-25T05:43:35.028Z,92.81
2023-05-25T05:48:37.427Z,95.38
2023-05-25T05:53:39.007Z,94.40
2023-05-25T05:58:40.842Z,93.94
2023-05-25T06:03:42.547Z,93.75
2023-05-25T06:08:44.370Z,93.13
2023-05-25T06:13:47.138Z,92.33
2023-05-25T06:18:48.784Z,90.69
2023-05-25T06:23:50.728Z,90.63
2023-05-25T06:28:52.453Z,89.55
2023-05-25T06:33:54.050Z,88.44
2023-05-25T06:38:55.759Z,86.79
2023-05-25T06:43:57.336Z,86.31
2023-05-25T06:49:02.582Z,83.88
2023-05-25T06:54:04.274Z,83.28
2023-05-25T06:59:06.073Z,83.85
2023-05-25T07:04:07.713Z,83.61
2023-05-25T07:09:10.518Z,83.50
2023-05-25T07:14:12.154Z,81.18
2023-05-25T07:19:13.828Z,81.96
2023-05-25T07:24:15.552Z,81.19
2023-05-25T07:29:17.174Z,82.80
2023-05-25T07:34:20.487Z,83.29
2023-05-25T07:39:22.121Z,82.15
2023-05-25T07:44:23.703Z,81.29
2023-05-25T07:49:25.338Z,80.79
2023-05-25T07:54:27.582Z,81.20
2023-05-25T07:59:29.263Z,79.23
2023-05-25T08:04:31.278Z,79.61
2023-05-25T08:09:32.899Z,79.88
2023-05-25T08:14:34.569Z,79.92
2023-05-25T08:19:36.183Z,79.53
2023-05-25T08:24:37.771Z,80.22
2023-05-25T08:29:39.480Z,79.66
2023-05-25T08:34:41.135Z,77.29
2023-05-25T08:39:43.319Z,77.54
2023-05-25T08:44:44.963Z,78.14
2023-05-25T08:49:50.162Z,75.08
2023-05-25T08:54:55.290Z,73.97
2023-05-25T09:00:12.987Z,75.83
2023-05-25T09:05:15.667Z,74.29
2023-05-25T09:10:17.334Z,77.28
2023-05-25T09:15:19.113Z,72.66
2023-05-25T09:20:20.815Z,74.85
2023-05-25T09:25:26.275Z,75.88
2023-05-25T09:30:32.825Z,73.56
2023-05-25T09:35:35.275Z,73.16
2023-05-25T09:40:38.265Z,74.79
2023-05-25T09:45:39.823Z,70.74
2023-05-25T09:50:41.951Z,69.53
2023-05-25T09:55:53.036Z,71.71
2023-05-25T10:00:55.936Z,71.17
2023-05-25T10:05:57.840Z,67.22
2023-05-25T10:10:59.763Z,69.30
2023-05-25T10:16:02.906Z,74.46
2023-05-25T10:21:06.956Z,68.91
2023-05-25T10:26:10.074Z,71.17
2023-05-25T10:31:13.591Z,66.51
2023-05-25T10:36:18.170Z,67.35
2023-05-25T10:41:20.745Z,68.04
2023-05-25T10:46:22.426Z,66.96
2023-05-25T10:51:37.856Z,62.58
2023-05-25T10:57:28.558Z,61.93
2023-05-25T11:02:32.467Z,62.81
2023-05-25T11:07:53.019Z,63.91
2023-05-25T11:12:54.596Z,62.42
2023-05-25T11:18:01.437Z,63.04
2023-05-25T11:23:23.233Z,62.05
2023-05-25T11:28:27.323Z,59.97
2023-05-25T11:33:28.990Z,58.87
2023-05-25T11:38:31.592Z,58.85
2023-05-25T11:43:34.183Z,59.97
2023-05-25T11:48:35.740Z,60.04
2023-05-25T11:53:45.100Z,58.26
2023-05-25T11:58:47.988Z,58.50
2023-05-25T12:03:57.038Z,58.18
2023-05-25T12:08:58.967Z,61.42
2023-05-25T12:14:02.278Z,60.80
2023-05-25T12:19:04.327Z,60.38
2023-05-25T12:24:06.734Z,56.63
2023-05-25T12:29:10.230Z,62.30
2023-05-25T12:34:20.004Z,60.41
2023-05-25T12:39:24.707Z,59.00
2023-05-25T12:44:27.827Z,60.34
2023-05-25T12:49:31.627Z,58.05
2023-05-25T12:54:37.760Z,58.40
2023-05-25T12:59:41.055Z,58.03
2023-05-25T13:04:42.750Z,56.25
2023-05-25T13:09:44.490Z,58.57
2023-05-25T13:14:47.441Z,57.24
2023-05-25T13:19:49.399Z,58.77
2023-05-25T13:24:51.152Z,53.71
2023-05-25T13:29:52.727Z,56.02
2023-05-25T13:34:59.681Z,55.35
2023-05-25T13:40:01.272Z,55.20
2023-05-25T13:45:03.068Z,56.89
2023-05-25T13:50:05.196Z,54.69
2023-05-25T13:55:07.561Z,51.59
2023-05-25T14:00:09.560Z,52.87
2023-05-25T14:05:11.190Z,55.71
2023-05-25T14:10:13.774Z,54.91
2023-05-25T14:15:15.532Z,54.54
2023-05-25T14:20:22.649Z,52.92
2023-05-25T14:25:24.311Z,53.55
2023-05-25T14:30:25.924Z,53.86
2023-05-25T14:35:27.550Z,54.87
2023-05-25T14:40:29.177Z,54.83
2023-05-25T14:45:30.840Z,51.43
2023-05-25T14:50:32.457Z,51.70
2023-05-25T14:55:34.013Z,52.48
2023-05-25T15:00:35.821Z,52.47
2023-05-25T15:05:37.384Z,51.30
2023-05-25T15:10:38.976Z,49.96
2023-05-25T15:15:40.671Z,52.97
2023-05-25T15:20:46.504Z,50.70
2023-05-25T15:25:48.469Z,50.30
2023-05-25T15:30:50.151Z,51.02
2023-05-25T15:35:52.497Z,51.00
2023-05-25T15:40:54.059Z,52.02
2023-05-25T15:45:55.748Z,50.97
2023-05-25T15:50:57.898Z,51.79
2023-05-25T15:55:59.545Z,50.36
2023-05-25T16:01:02.693Z,50.91
2023-05-25T16:06:04.301Z,50.54
2023-05-25T16:11:06.796Z,50.81
2023-05-25T16:16:08.470Z,50.67
2023-05-25T16:21:13.325Z,49.72
2023-05-25T16:26:15.131Z,52.31
2023-05-25T16:31:17.463Z,52.82
2023-05-25T16:36:20.408Z,52.48
2023-05-25T16:41:22.004Z,53.24
2023-05-25T16:46:25.309Z,52.86
2023-05-25T16:51:27.019Z,52.92
2023-05-25T16:56:29.817Z,54.73
2023-05-25T17:01:31.433Z,55.81
2023-05-25T17:06:33.090Z,56.15
2023-05-25T17:11:34.796Z,56.66
2023-05-25T17:16:36.491Z,57.16
2023-05-25T17:21:38.495Z,56.01
2023-05-25T17:26:40.153Z,55.40
2023-05-25T17:31:42.551Z,55.73
2023-05-25T17:36:44.283Z,57.49
2023-05-25T17:41:45.994Z,57.79
2023-05-25T17:46:47.611Z,59.76
2023-05-25T17:51:49.400Z,59.06
2023-05-25T17:56:52.478Z,58.97
2023-05-25T18:01:54.327Z,60.17
2023-05-25T18:06:56.189Z,60.90
2023-05-25T18:11:58.554Z,62.99
2023-05-25T18:17:00.781Z,62.95
2023-05-25T18:22:02.986Z,63.62
2023-05-25T18:27:05.435Z,62.64
2023-05-25T18:32:07.391Z,61.16
2023-05-25T18:37:08.952Z,60.00
2023-05-25T18:42:10.673Z,59.52
2023-05-25T18:47:12.352Z,59.64
2023-05-25T18:52:14.020Z,59.33
2023-05-25T18:57:16.379Z,59.87
2023-05-25T19:02:18.002Z,59.86
2023-05-25T19:07:19.599Z,59.38
2023-05-25T19:12:21.189Z,59.90
2023-05-25T19:17:23.202Z,59.84
2023-05-25T19:22:24.843Z,61.17
2023-05-25T19:27:26.659Z,60.60
2023-05-25T19:32:28.449Z,60.57
2023-05-25T19:37:30.229Z,60.46
2023-05-25T19:42:32.006Z,61.07
2023-05-25T19:47:33.986Z,60.16
2023-05-25T19:52:36.005Z,61.11
2023-05-25T19:57:38.720Z,59.75
2023-05-25T20:02:40.904Z,60.28
2023-05-25T20:07:44.196Z,60.96
2023-05-25T20:12:45.968Z,60.56
2023-05-25T20:17:47.671Z,60.32
2023-05-25T20:22:49.930Z,60.54
2023-05-25T20:27:51.548Z,61.21
2023-05-25T20:32:53.153Z,62.08
2023-05-25T20:37:54.744Z,62.28
2023-05-25T20:42:56.786Z,63.04
2023-05-25T20:48:04.034Z,63.80
2023-05-25T20:53:05.679Z,63.58
2023-05-25T20:58:07.248Z,64.25
2023-05-25T21:03:09.007Z,64.27
2023-05-25T21:08:11.355Z,64.00
2023-05-25T21:13:13.001Z,64.49
2023-05-25T21:18:14.563Z,64.09
2023-05-25T21:23:16.326Z,65.22
2023-05-25T21:28:17.876Z,65.49
2023-05-25T21:33:19.531Z,65.26
2023-05-25T21:38:21.091Z,66.44
2023-05-25T21:43:22.657Z,66.11
2023-05-25T21:48:24.468Z,64.48
2023-05-25T21:53:26.050Z,64.56
2023-05-25T21:58:27.621Z,64.66
2023-05-25T22:03:29.224Z,65.58
2023-05-25T22:08:30.916Z,64.59
2023-05-25T22:13:32.802Z,64.74
2023-05-25T22:18:35.495Z,65.59
2023-05-25T22:23:38.792Z,65.47
2023-05-25T22:28:40.485Z,65.31
2023-05-25T22:33:42.202Z,65.14
2023-05-25T22:38:43.863Z,65.58
2023-05-25T22:43:45.499Z,65.67
2023-05-25T22:48:47.162Z,64.83
2023-05-25T22:53:48.830Z,65.82
2023-05-25T22:58:50.592Z,65.76
2023-05-25T23:03:52.427Z,66.44
2023-05-25T23:08:54.152Z,66.67
2023-05-25T23:13:55.788Z,66.15
2023-05-25T23:18:57.570Z,67.01
2023-05-25T23:23:59.662Z,67.60
2023-05-25T23:29:01.354Z,68.92
2023-05-25T23:34:02.996Z,68.35
2023-05-25T23:39:04.704Z,68.92
2023-05-25T23:44:06.554Z,69.40
2023-05-25T23:49:08.191Z,68.86
2023-05-25T23:54:10.136Z,68.41
2023-05-25T23:59:14.725Z,68.04
